sensor_id;sensor_type;location;lat;lon;timestamp;P1;durP1;ratioP1;P2;durP2;ratioP2
14268;SDS011;7218;51.480;7.006;2024-03-23T00:52:59;14.38;;;3.70;;
14268;SDS011;7218;51.480;7.006;2024-03-23T00:55:25;16.23;;;4.07;;
14268;SDS011;7218;51.480;7.006;2024-03-23T00:57:52;16.45;;;4.07;;
14268;SDS011;7218;51.480;7.006;2024-03-23T01:00:17;16.45;;;4.78;;
14268;SDS011;7218;51.480;7.006;2024-03-23T01:02:44;13.02;;;3.95;;
14268;SDS011;7218;51.480;7.006;2024-03-23T01:05:09;15.55;;;4.22;;
14268;SDS011;7218;51.480;7.006;2024-03-23T01:07:36;17.40;;;4.38;;
14268;SDS011;7218;51.480;7.006;2024-03-23T01:10:03;15.85;;;4.20;;
14268;SDS011;7218;51.480;7.006;2024-03-23T01:12:30;14.93;;;4.10;;
14268;SDS011;7218;51.480;7.006;2024-03-23T01:14:56;11.10;;;3.50;;
14268;SDS011;7218;51.480;7.006;2024-03-23T01:17:22;12.43;;;3.08;;
14268;SDS011;7218;51.480;7.006;2024-03-23T01:19:48;11.13;;;3.25;;
14268;SDS011;7218;51.480;7.006;2024-03-23T01:22:14;10.57;;;3.40;;
14268;SDS011;7218;51.480;7.006;2024-03-23T01:24:40;11.48;;;3.03;;
14268;SDS011;7218;51.480;7.006;2024-03-23T01:27:08;11.38;;;3.42;;
14268;SDS011;7218;51.480;7.006;2024-03-23T01:29:33;11.27;;;3.60;;
14268;SDS011;7218;51.480;7.006;2024-03-23T01:32:00;7.45;;;2.63;;
14268;SDS011;7218;51.480;7.006;2024-03-23T01:34:25;8.45;;;2.70;;
14268;SDS011;7218;51.480;7.006;2024-03-23T01:36:53;10.52;;;2.83;;
14268;SDS011;7218;51.480;7.006;2024-03-23T01:39:18;7.15;;;2.50;;
14268;SDS011;7218;51.480;7.006;2024-03-23T01:41:45;9.70;;;2.28;;
14268;SDS011;7218;51.480;7.006;2024-03-23T01:44:11;9.93;;;2.78;;
14268;SDS011;7218;51.480;7.006;2024-03-23T01:46:38;8.23;;;2.80;;
14268;SDS011;7218;51.480;7.006;2024-03-23T01:49:04;7.85;;;2.45;;
14268;SDS011;7218;51.480;7.006;2024-03-23T01:51:31;7.50;;;2.20;;
14268;SDS011;7218;51.480;7.006;2024-03-23T01:53:57;9.70;;;2.42;;
14268;SDS011;7218;51.480;7.006;2024-03-23T01:56:27;10.65;;;2.40;;
14268;SDS011;7218;51.480;7.006;2024-03-23T01:58:53;6.35;;;2.20;;
14268;SDS011;7218;51.480;7.006;2024-03-23T02:01:21;9.48;;;2.65;;
14268;SDS011;7218;51.480;7.006;2024-03-23T02:03:47;7.20;;;2.15;;
14268;SDS011;7218;51.480;7.006;2024-03-23T02:06:13;8.63;;;2.58;;
14268;SDS011;7218;51.480;7.006;2024-03-23T02:08:39;10.85;;;2.42;;
14268;SDS011;7218;51.480;7.006;2024-03-23T02:11:06;6.90;;;2.30;;
14268;SDS011;7218;51.480;7.006;2024-03-23T02:13:31;13.43;;;3.05;;
14268;SDS011;7218;51.480;7.006;2024-03-23T02:15:58;8.60;;;2.60;;
14268;SDS011;7218;51.480;7.006;2024-03-23T02:18:25;8.70;;;2.13;;
14268;SDS011;7218;51.480;7.006;2024-03-23T02:20:51;8.73;;;2.25;;
14268;SDS011;7218;51.480;7.006;2024-03-23T02:23:18;7.78;;;2.15;;
14268;SDS011;7218;51.480;7.006;2024-03-23T02:25:45;8.02;;;2.40;;
14268;SDS011;7218;51.480;7.006;2024-03-23T02:28:10;9.27;;;2.35;;
14268;SDS011;7218;51.480;7.006;2024-03-23T02:30:37;7.03;;;2.25;;
14268;SDS011;7218;51.480;7.006;2024-03-23T02:33:03;8.40;;;2.53;;
14268;SDS011;7218;51.480;7.006;2024-03-23T02:35:30;10.23;;;2.30;;
14268;SDS011;7218;51.480;7.006;2024-03-23T02:37:55;6.90;;;2.50;;
14268;SDS011;7218;51.480;7.006;2024-03-23T02:40:23;9.38;;;3.00;;
14268;SDS011;7218;51.480;7.006;2024-03-23T02:42:50;8.35;;;2.75;;
14268;SDS011;7218;51.480;7.006;2024-03-23T02:45:16;6.88;;;2.38;;
14268;SDS011;7218;51.480;7.006;2024-03-23T02:47:42;10.68;;;2.50;;
14268;SDS011;7218;51.480;7.006;2024-03-23T02:50:08;9.73;;;2.47;;
14268;SDS011;7218;51.480;7.006;2024-03-23T02:52:34;10.57;;;2.47;;
14268;SDS011;7218;51.480;7.006;2024-03-23T02:55:01;7.57;;;2.00;;
14268;SDS011;7218;51.480;7.006;2024-03-23T02:57:28;6.40;;;2.67;;
14268;SDS011;7218;51.480;7.006;2024-03-23T02:59:54;7.82;;;2.30;;
14268;SDS011;7218;51.480;7.006;2024-03-23T03:02:20;9.35;;;2.10;;
14268;SDS011;7218;51.480;7.006;2024-03-23T03:04:47;8.55;;;2.13;;
14268;SDS011;7218;51.480;7.006;2024-03-23T03:07:13;6.07;;;1.95;;
14268;SDS011;7218;51.480;7.006;2024-03-23T03:09:39;6.90;;;2.05;;
14268;SDS011;7218;51.480;7.006;2024-03-23T03:12:05;5.97;;;1.88;;
14268;SDS011;7218;51.480;7.006;2024-03-23T03:14:33;10.57;;;2.33;;
14268;SDS011;7218;51.480;7.006;2024-03-23T03:16:59;4.85;;;2.08;;
14268;SDS011;7218;51.480;7.006;2024-03-23T03:19:25;7.75;;;2.17;;
14268;SDS011;7218;51.480;7.006;2024-03-23T03:21:51;8.05;;;2.00;;
14268;SDS011;7218;51.480;7.006;2024-03-23T03:24:18;7.70;;;1.98;;
14268;SDS011;7218;51.480;7.006;2024-03-23T03:26:43;7.43;;;2.05;;
14268;SDS011;7218;51.480;7.006;2024-03-23T03:29:10;6.85;;;2.08;;
14268;SDS011;7218;51.480;7.006;2024-03-23T03:31:38;8.25;;;2.15;;
14268;SDS011;7218;51.480;7.006;2024-03-23T03:34:04;6.57;;;2.30;;
14268;SDS011;7218;51.480;7.006;2024-03-23T03:36:30;6.65;;;1.95;;
14268;SDS011;7218;51.480;7.006;2024-03-23T03:38:57;7.25;;;2.13;;
14268;SDS011;7218;51.480;7.006;2024-03-23T03:41:22;7.90;;;2.10;;
14268;SDS011;7218;51.480;7.006;2024-03-23T03:43:49;6.72;;;2.20;;
14268;SDS011;7218;51.480;7.006;2024-03-23T03:46:14;8.68;;;2.50;;
14268;SDS011;7218;51.480;7.006;2024-03-23T03:48:42;10.55;;;2.40;;
14268;SDS011;7218;51.480;7.006;2024-03-23T03:51:10;6.28;;;2.20;;
14268;SDS011;7218;51.480;7.006;2024-03-23T03:53:36;7.28;;;2.22;;
14268;SDS011;7218;51.480;7.006;2024-03-23T03:56:02;5.32;;;2.33;;
14268;SDS011;7218;51.480;7.006;2024-03-23T03:58:28;8.93;;;2.50;;
14268;SDS011;7218;51.480;7.006;2024-03-23T04:00:54;8.63;;;2.90;;
14268;SDS011;7218;51.480;7.006;2024-03-23T04:03:21;10.45;;;3.58;;
14268;SDS011;7218;51.480;7.006;2024-03-23T04:05:50;9.63;;;3.22;;
14268;SDS011;7218;51.480;7.006;2024-03-23T04:08:17;10.60;;;3.60;;
14268;SDS011;7218;51.480;7.006;2024-03-23T04:10:43;11.63;;;3.65;;
14268;SDS011;7218;51.480;7.006;2024-03-23T04:13:10;11.52;;;3.30;;
14268;SDS011;7218;51.480;7.006;2024-03-23T04:15:36;12.02;;;3.42;;
14268;SDS011;7218;51.480;7.006;2024-03-23T04:18:03;10.40;;;3.70;;
14268;SDS011;7218;51.480;7.006;2024-03-23T04:20:29;13.32;;;3.95;;
14268;SDS011;7218;51.480;7.006;2024-03-23T04:22:57;13.20;;;3.72;;
14268;SDS011;7218;51.480;7.006;2024-03-23T04:25:22;10.60;;;3.28;;
14268;SDS011;7218;51.480;7.006;2024-03-23T04:27:48;14.20;;;4.47;;
14268;SDS011;7218;51.480;7.006;2024-03-23T04:30:14;9.75;;;3.33;;
14268;SDS011;7218;51.480;7.006;2024-03-23T04:32:41;11.70;;;3.58;;
14268;SDS011;7218;51.480;7.006;2024-03-23T04:35:07;9.23;;;3.85;;
14268;SDS011;7218;51.480;7.006;2024-03-23T04:37:34;12.32;;;3.65;;
14268;SDS011;7218;51.480;7.006;2024-03-23T04:40:03;9.55;;;3.17;;
14268;SDS011;7218;51.480;7.006;2024-03-23T04:42:30;10.95;;;3.20;;
14268;SDS011;7218;51.480;7.006;2024-03-23T04:44:57;9.13;;;2.90;;
14268;SDS011;7218;51.480;7.006;2024-03-23T04:47:23;8.85;;;2.47;;
14268;SDS011;7218;51.480;7.006;2024-03-23T04:49:50;10.77;;;2.88;;
14268;SDS011;7218;51.480;7.006;2024-03-23T04:52:17;13.13;;;3.13;;
14268;SDS011;7218;51.480;7.006;2024-03-23T04:54:43;9.43;;;2.70;;
14268;SDS011;7218;51.480;7.006;2024-03-23T04:57:11;10.75;;;3.20;;
14268;SDS011;7218;51.480;7.006;2024-03-23T04:59:38;10.25;;;2.95;;
14268;SDS011;7218;51.480;7.006;2024-03-23T05:02:03;9.55;;;2.88;;
14268;SDS011;7218;51.480;7.006;2024-03-23T05:04:30;11.32;;;3.08;;
14268;SDS011;7218;51.480;7.006;2024-03-23T05:06:57;14.32;;;4.22;;
14268;SDS011;7218;51.480;7.006;2024-03-23T05:09:23;9.57;;;3.28;;
14268;SDS011;7218;51.480;7.006;2024-03-23T05:11:54;9.68;;;4.03;;
14268;SDS011;7218;51.480;7.006;2024-03-23T05:14:22;11.00;;;3.78;;
14268;SDS011;7218;51.480;7.006;2024-03-23T05:16:48;13.73;;;3.53;;
14268;SDS011;7218;51.480;7.006;2024-03-23T05:19:14;9.73;;;3.55;;
14268;SDS011;7218;51.480;7.006;2024-03-23T05:21:40;11.77;;;3.67;;
14268;SDS011;7218;51.480;7.006;2024-03-23T05:24:07;10.10;;;3.63;;
14268;SDS011;7218;51.480;7.006;2024-03-23T05:26:32;10.20;;;3.63;;
14268;SDS011;7218;51.480;7.006;2024-03-23T05:28:59;9.52;;;4.00;;
14268;SDS011;7218;51.480;7.006;2024-03-23T05:31:26;12.75;;;4.03;;
14268;SDS011;7218;51.480;7.006;2024-03-23T05:33:54;11.70;;;3.72;;
14268;SDS011;7218;51.480;7.006;2024-03-23T05:36:19;10.55;;;4.32;;
14268;SDS011;7218;51.480;7.006;2024-03-23T05:38:46;8.93;;;3.80;;
14268;SDS011;7218;51.480;7.006;2024-03-23T05:41:12;11.68;;;3.90;;
14268;SDS011;7218;51.480;7.006;2024-03-23T05:43:38;11.98;;;4.10;;
14268;SDS011;7218;51.480;7.006;2024-03-23T05:46:04;12.70;;;4.10;;
14268;SDS011;7218;51.480;7.006;2024-03-23T05:48:32;9.27;;;3.90;;
14268;SDS011;7218;51.480;7.006;2024-03-23T05:50:58;11.88;;;4.50;;
14268;SDS011;7218;51.480;7.006;2024-03-23T05:53:25;10.52;;;4.10;;
14268;SDS011;7218;51.480;7.006;2024-03-23T05:55:51;11.85;;;4.90;;
14268;SDS011;7218;51.480;7.006;2024-03-23T05:58:25;12.82;;;4.43;;
14268;SDS011;7218;51.480;7.006;2024-03-23T06:00:56;14.75;;;5.00;;
14268;SDS011;7218;51.480;7.006;2024-03-23T06:03:23;12.88;;;5.00;;
14268;SDS011;7218;51.480;7.006;2024-03-23T06:05:50;17.02;;;5.25;;
14268;SDS011;7218;51.480;7.006;2024-03-23T06:08:17;11.60;;;4.80;;
14268;SDS011;7218;51.480;7.006;2024-03-23T06:10:42;12.90;;;5.28;;
14268;SDS011;7218;51.480;7.006;2024-03-23T06:13:09;13.52;;;5.63;;
14268;SDS011;7218;51.480;7.006;2024-03-23T06:15:34;11.57;;;5.90;;
14268;SDS011;7218;51.480;7.006;2024-03-23T06:18:02;15.93;;;6.20;;
14268;SDS011;7218;51.480;7.006;2024-03-23T06:20:29;15.13;;;5.70;;
14268;SDS011;7218;51.480;7.006;2024-03-23T06:22:56;15.00;;;6.80;;
14268;SDS011;7218;51.480;7.006;2024-03-23T06:25:22;13.63;;;5.82;;
14268;SDS011;7218;51.480;7.006;2024-03-23T06:27:48;15.95;;;6.50;;
14268;SDS011;7218;51.480;7.006;2024-03-23T06:30:14;13.82;;;5.53;;
14268;SDS011;7218;51.480;7.006;2024-03-23T06:32:40;13.07;;;6.20;;
14268;SDS011;7218;51.480;7.006;2024-03-23T06:35:06;13.40;;;6.05;;
14268;SDS011;7218;51.480;7.006;2024-03-23T06:37:35;13.75;;;5.78;;
14268;SDS011;7218;51.480;7.006;2024-03-23T06:40:02;16.40;;;6.00;;
14268;SDS011;7218;51.480;7.006;2024-03-23T06:42:29;14.48;;;6.07;;
14268;SDS011;7218;51.480;7.006;2024-03-23T06:44:55;14.30;;;6.60;;
14268;SDS011;7218;51.480;7.006;2024-03-23T06:47:21;16.40;;;6.50;;
14268;SDS011;7218;51.480;7.006;2024-03-23T06:49:47;12.32;;;6.65;;
14268;SDS011;7218;51.480;7.006;2024-03-23T06:52:13;13.45;;;6.28;;
14268;SDS011;7218;51.480;7.006;2024-03-23T06:54:39;16.30;;;7.68;;
14268;SDS011;7218;51.480;7.006;2024-03-23T06:57:07;15.68;;;7.13;;
14268;SDS011;7218;51.480;7.006;2024-03-23T06:59:32;16.77;;;7.35;;
14268;SDS011;7218;51.480;7.006;2024-03-23T07:01:59;15.30;;;6.85;;
14268;SDS011;7218;51.480;7.006;2024-03-23T07:04:24;13.52;;;6.75;;
14268;SDS011;7218;51.480;7.006;2024-03-23T07:06:50;16.60;;;6.97;;
14268;SDS011;7218;51.480;7.006;2024-03-23T07:09:16;16.88;;;7.35;;
14268;SDS011;7218;51.480;7.006;2024-03-23T07:11:44;17.40;;;8.05;;
14268;SDS011;7218;51.480;7.006;2024-03-23T07:14:12;15.18;;;7.00;;
14268;SDS011;7218;51.480;7.006;2024-03-23T07:16:38;16.38;;;7.00;;
14268;SDS011;7218;51.480;7.006;2024-03-23T07:19:04;13.00;;;6.65;;
14268;SDS011;7218;51.480;7.006;2024-03-23T07:21:30;18.00;;;6.85;;
14268;SDS011;7218;51.480;7.006;2024-03-23T07:23:56;19.85;;;7.13;;
14268;SDS011;7218;51.480;7.006;2024-03-23T07:26:22;16.48;;;7.35;;
14268;SDS011;7218;51.480;7.006;2024-03-23T07:28:48;15.25;;;6.50;;
14268;SDS011;7218;51.480;7.006;2024-03-23T07:31:16;15.27;;;7.43;;
14268;SDS011;7218;51.480;7.006;2024-03-23T07:33:41;17.15;;;6.78;;
14268;SDS011;7218;51.480;7.006;2024-03-23T07:36:09;18.98;;;7.47;;
14268;SDS011;7218;51.480;7.006;2024-03-23T07:38:35;14.57;;;7.15;;
14268;SDS011;7218;51.480;7.006;2024-03-23T07:41:04;15.75;;;6.45;;
14268;SDS011;7218;51.480;7.006;2024-03-23T07:43:30;15.38;;;6.43;;
14268;SDS011;7218;51.480;7.006;2024-03-23T07:45:57;17.75;;;6.80;;
14268;SDS011;7218;51.480;7.006;2024-03-23T07:48:23;11.50;;;5.32;;
14268;SDS011;7218;51.480;7.006;2024-03-23T07:51:00;16.42;;;6.55;;
14268;SDS011;7218;51.480;7.006;2024-03-23T07:53:26;15.75;;;6.22;;
14268;SDS011;7218;51.480;7.006;2024-03-23T07:55:57;13.98;;;6.80;;
14268;SDS011;7218;51.480;7.006;2024-03-23T07:58:23;16.90;;;5.72;;
14268;SDS011;7218;51.480;7.006;2024-03-23T08:00:50;18.83;;;6.40;;
14268;SDS011;7218;51.480;7.006;2024-03-23T08:03:15;15.27;;;5.72;;
14268;SDS011;7218;51.480;7.006;2024-03-23T08:05:43;11.90;;;4.65;;
14268;SDS011;7218;51.480;7.006;2024-03-23T08:08:09;12.15;;;5.35;;
14268;SDS011;7218;51.480;7.006;2024-03-23T08:10:35;14.95;;;5.53;;
14268;SDS011;7218;51.480;7.006;2024-03-23T08:13:01;11.82;;;4.80;;
14268;SDS011;7218;51.480;7.006;2024-03-23T08:15:29;10.20;;;4.80;;
14268;SDS011;7218;51.480;7.006;2024-03-23T08:17:56;11.15;;;4.70;;
14268;SDS011;7218;51.480;7.006;2024-03-23T08:20:22;9.10;;;4.55;;
14268;SDS011;7218;51.480;7.006;2024-03-23T08:22:49;12.63;;;4.28;;
14268;SDS011;7218;51.480;7.006;2024-03-23T08:25:16;12.60;;;4.70;;
14268;SDS011;7218;51.480;7.006;2024-03-23T08:27:43;15.98;;;5.50;;
14268;SDS011;7218;51.480;7.006;2024-03-23T08:30:10;11.48;;;4.38;;
14268;SDS011;7218;51.480;7.006;2024-03-23T08:32:36;16.48;;;4.70;;
14268;SDS011;7218;51.480;7.006;2024-03-23T08:35:03;11.95;;;4.32;;
14268;SDS011;7218;51.480;7.006;2024-03-23T08:37:29;14.60;;;4.22;;
14268;SDS011;7218;51.480;7.006;2024-03-23T08:39:56;13.60;;;4.28;;
14268;SDS011;7218;51.480;7.006;2024-03-23T08:42:22;11.60;;;4.75;;
14268;SDS011;7218;51.480;7.006;2024-03-23T08:44:48;10.18;;;3.83;;
14268;SDS011;7218;51.480;7.006;2024-03-23T08:47:14;11.07;;;3.85;;
14268;SDS011;7218;51.480;7.006;2024-03-23T08:49:41;9.50;;;3.75;;
14268;SDS011;7218;51.480;7.006;2024-03-23T08:52:06;10.85;;;3.55;;
14268;SDS011;7218;51.480;7.006;2024-03-23T08:54:33;11.85;;;3.47;;
14268;SDS011;7218;51.480;7.006;2024-03-23T08:57:00;9.10;;;3.50;;
14268;SDS011;7218;51.480;7.006;2024-03-23T08:59:27;12.88;;;3.60;;
14268;SDS011;7218;51.480;7.006;2024-03-23T09:01:52;10.38;;;3.40;;
14268;SDS011;7218;51.480;7.006;2024-03-23T09:04:19;8.95;;;3.03;;
14268;SDS011;7218;51.480;7.006;2024-03-23T09:06:45;9.95;;;3.42;;
14268;SDS011;7218;51.480;7.006;2024-03-23T09:09:11;6.50;;;2.70;;
14268;SDS011;7218;51.480;7.006;2024-03-23T09:11:37;6.68;;;3.00;;
14268;SDS011;7218;51.480;7.006;2024-03-23T09:14:04;7.47;;;2.60;;
14268;SDS011;7218;51.480;7.006;2024-03-23T09:16:30;6.82;;;2.33;;
14268;SDS011;7218;51.480;7.006;2024-03-23T09:18:56;5.78;;;2.33;;
14268;SDS011;7218;51.480;7.006;2024-03-23T09:21:22;6.88;;;2.17;;
14268;SDS011;7218;51.480;7.006;2024-03-23T09:23:48;8.93;;;2.42;;
14268;SDS011;7218;51.480;7.006;2024-03-23T09:26:14;5.68;;;2.58;;
14268;SDS011;7218;51.480;7.006;2024-03-23T09:28:40;9.82;;;2.70;;
14268;SDS011;7218;51.480;7.006;2024-03-23T09:31:08;7.63;;;3.00;;
14268;SDS011;7218;51.480;7.006;2024-03-23T09:33:39;9.40;;;3.25;;
14268;SDS011;7218;51.480;7.006;2024-03-23T09:36:05;10.10;;;3.10;;
14268;SDS011;7218;51.480;7.006;2024-03-23T09:38:32;10.50;;;3.28;;
14268;SDS011;7218;51.480;7.006;2024-03-23T09:40:58;9.15;;;3.30;;
14268;SDS011;7218;51.480;7.006;2024-03-23T09:43:25;9.70;;;3.60;;
14268;SDS011;7218;51.480;7.006;2024-03-23T09:45:51;9.82;;;3.50;;
14268;SDS011;7218;51.480;7.006;2024-03-23T09:48:19;11.50;;;3.80;;
14268;SDS011;7218;51.480;7.006;2024-03-23T09:50:45;8.20;;;3.22;;
14268;SDS011;7218;51.480;7.006;2024-03-23T09:53:13;9.70;;;3.47;;
14268;SDS011;7218;51.480;7.006;2024-03-23T09:55:39;9.25;;;3.40;;
14268;SDS011;7218;51.480;7.006;2024-03-23T09:58:07;7.10;;;2.97;;
14268;SDS011;7218;51.480;7.006;2024-03-23T10:00:33;8.52;;;2.80;;
14268;SDS011;7218;51.480;7.006;2024-03-23T10:03:00;7.32;;;3.00;;
14268;SDS011;7218;51.480;7.006;2024-03-23T10:05:28;10.32;;;2.72;;
14268;SDS011;7218;51.480;7.006;2024-03-23T10:07:56;6.78;;;2.80;;
14268;SDS011;7218;51.480;7.006;2024-03-23T10:10:22;9.82;;;2.65;;
14268;SDS011;7218;51.480;7.006;2024-03-23T10:12:51;7.97;;;2.35;;
14268;SDS011;7218;51.480;7.006;2024-03-23T10:15:18;6.10;;;2.30;;
14268;SDS011;7218;51.480;7.006;2024-03-23T10:17:45;8.80;;;2.70;;
14268;SDS011;7218;51.480;7.006;2024-03-23T10:20:11;7.22;;;2.60;;
14268;SDS011;7218;51.480;7.006;2024-03-23T10:22:39;10.02;;;2.63;;
14268;SDS011;7218;51.480;7.006;2024-03-23T10:25:08;9.63;;;2.85;;
14268;SDS011;7218;51.480;7.006;2024-03-23T10:27:35;8.00;;;2.10;;
14268;SDS011;7218;51.480;7.006;2024-03-23T10:30:07;5.80;;;1.70;;
14268;SDS011;7218;51.480;7.006;2024-03-23T10:32:35;7.45;;;1.85;;
14268;SDS011;7218;51.480;7.006;2024-03-23T10:35:13;6.30;;;2.00;;
14268;SDS011;7218;51.480;7.006;2024-03-23T10:37:42;5.60;;;1.90;;
14268;SDS011;7218;51.480;7.006;2024-03-23T10:40:09;5.65;;;1.85;;
14268;SDS011;7218;51.480;7.006;2024-03-23T10:42:38;6.55;;;2.28;;
14268;SDS011;7218;51.480;7.006;2024-03-23T10:45:04;8.20;;;2.08;;
14268;SDS011;7218;51.480;7.006;2024-03-23T10:47:31;6.07;;;2.40;;
14268;SDS011;7218;51.480;7.006;2024-03-23T10:49:57;6.97;;;1.80;;
14268;SDS011;7218;51.480;7.006;2024-03-23T10:52:23;3.60;;;1.38;;
14268;SDS011;7218;51.480;7.006;2024-03-23T10:54:51;2.33;;;1.20;;
14268;SDS011;7218;51.480;7.006;2024-03-23T10:57:23;4.43;;;1.40;;
14268;SDS011;7218;51.480;7.006;2024-03-23T10:59:55;3.22;;;1.20;;
14268;SDS011;7218;51.480;7.006;2024-03-23T11:02:23;3.25;;;1.17;;
14268;SDS011;7218;51.480;7.006;2024-03-23T11:04:52;4.25;;;1.02;;
14268;SDS011;7218;51.480;7.006;2024-03-23T11:07:28;3.72;;;1.13;;
14268;SDS011;7218;51.480;7.006;2024-03-23T11:09:56;3.45;;;1.17;;
14268;SDS011;7218;51.480;7.006;2024-03-23T11:12:29;1.67;;;1.00;;
14268;SDS011;7218;51.480;7.006;2024-03-23T11:14:59;3.53;;;1.15;;
14268;SDS011;7218;51.480;7.006;2024-03-23T11:17:27;2.20;;;1.00;;
14268;SDS011;7218;51.480;7.006;2024-03-23T11:19:53;1.48;;;0.80;;
14268;SDS011;7218;51.480;7.006;2024-03-23T11:22:40;1.63;;;0.85;;
14268;SDS011;7218;51.480;7.006;2024-03-23T11:25:15;2.45;;;0.90;;
14268;SDS011;7218;51.480;7.006;2024-03-23T11:27:43;1.83;;;1.08;;
14268;SDS011;7218;51.480;7.006;2024-03-23T11:30:11;2.88;;;1.23;;
14268;SDS011;7218;51.480;7.006;2024-03-23T11:32:42;3.03;;;1.40;;
14268;SDS011;7218;51.480;7.006;2024-03-23T11:35:08;3.67;;;1.25;;
14268;SDS011;7218;51.480;7.006;2024-03-23T11:37:36;3.17;;;1.40;;
14268;SDS011;7218;51.480;7.006;2024-03-23T11:42:45;4.45;;;1.65;;
14268;SDS011;7218;51.480;7.006;2024-03-23T11:45:11;2.70;;;1.40;;
14268;SDS011;7218;51.480;7.006;2024-03-23T11:47:39;5.03;;;1.98;;
14268;SDS011;7218;51.480;7.006;2024-03-23T11:50:04;7.32;;;3.67;;
14268;SDS011;7218;51.480;7.006;2024-03-23T11:52:31;9.40;;;5.00;;
14268;SDS011;7218;51.480;7.006;2024-03-23T11:55:02;6.93;;;1.90;;
14268;SDS011;7218;51.480;7.006;2024-03-23T11:57:31;8.50;;;3.17;;
14268;SDS011;7218;51.480;7.006;2024-03-23T11:59:56;5.95;;;2.03;;
14268;SDS011;7218;51.480;7.006;2024-03-23T12:02:23;4.93;;;1.80;;
14268;SDS011;7218;51.480;7.006;2024-03-23T12:04:49;3.97;;;1.60;;
14268;SDS011;7218;51.480;7.006;2024-03-23T12:07:15;5.97;;;1.80;;
14268;SDS011;7218;51.480;7.006;2024-03-23T12:09:43;4.63;;;1.77;;
14268;SDS011;7218;51.480;7.006;2024-03-23T12:12:13;5.50;;;2.05;;
14268;SDS011;7218;51.480;7.006;2024-03-23T12:14:41;6.18;;;1.90;;
14268;SDS011;7218;51.480;7.006;2024-03-23T12:17:09;4.72;;;1.30;;
14268;SDS011;7218;51.480;7.006;2024-03-23T12:19:35;5.25;;;1.60;;
14268;SDS011;7218;51.480;7.006;2024-03-23T12:22:02;4.03;;;1.40;;
14268;SDS011;7218;51.480;7.006;2024-03-23T12:24:28;3.80;;;1.98;;
14268;SDS011;7218;51.480;7.006;2024-03-23T12:26:55;2.55;;;1.48;;
14268;SDS011;7218;51.480;7.006;2024-03-23T12:29:25;3.40;;;1.27;;
14268;SDS011;7218;51.480;7.006;2024-03-23T12:31:54;4.20;;;1.65;;
14268;SDS011;7218;51.480;7.006;2024-03-23T12:34:19;3.03;;;1.30;;
14268;SDS011;7218;51.480;7.006;2024-03-23T12:36:46;3.53;;;1.20;;
14268;SDS011;7218;51.480;7.006;2024-03-23T12:39:11;2.65;;;1.30;;
14268;SDS011;7218;51.480;7.006;2024-03-23T12:41:38;3.88;;;1.40;;
14268;SDS011;7218;51.480;7.006;2024-03-23T12:44:03;4.18;;;1.40;;
14268;SDS011;7218;51.480;7.006;2024-03-23T12:46:30;4.45;;;1.50;;
14268;SDS011;7218;51.480;7.006;2024-03-23T12:48:56;2.88;;;1.23;;
14268;SDS011;7218;51.480;7.006;2024-03-23T12:51:24;3.30;;;1.38;;
14268;SDS011;7218;51.480;7.006;2024-03-23T12:53:50;4.53;;;1.40;;
14268;SDS011;7218;51.480;7.006;2024-03-23T12:56:16;6.95;;;1.88;;
14268;SDS011;7218;51.480;7.006;2024-03-23T12:58:42;4.28;;;1.77;;
14268;SDS011;7218;51.480;7.006;2024-03-23T13:01:08;3.40;;;1.55;;
14268;SDS011;7218;51.480;7.006;2024-03-23T13:03:34;7.40;;;2.00;;
14268;SDS011;7218;51.480;7.006;2024-03-23T13:06:02;5.60;;;1.90;;
14268;SDS011;7218;51.480;7.006;2024-03-23T13:08:32;5.47;;;1.60;;
14268;SDS011;7218;51.480;7.006;2024-03-23T13:10:59;3.70;;;1.70;;
14268;SDS011;7218;51.480;7.006;2024-03-23T13:13:24;3.50;;;1.40;;
14268;SDS011;7218;51.480;7.006;2024-03-23T13:15:51;2.88;;;1.38;;
14268;SDS011;7218;51.480;7.006;2024-03-23T13:18:16;2.17;;;1.10;;
14268;SDS011;7218;51.480;7.006;2024-03-23T13:20:43;2.42;;;1.27;;
14268;SDS011;7218;51.480;7.006;2024-03-23T13:23:10;2.25;;;1.23;;
14268;SDS011;7218;51.480;7.006;2024-03-23T13:25:37;4.93;;;1.40;;
14268;SDS011;7218;51.480;7.006;2024-03-23T13:28:02;1.63;;;1.15;;
14268;SDS011;7218;51.480;7.006;2024-03-23T13:30:29;1.60;;;0.70;;
14268;SDS011;7218;51.480;7.006;2024-03-23T13:32:54;2.22;;;1.00;;
14268;SDS011;7218;51.480;7.006;2024-03-23T13:35:21;2.75;;;1.30;;
14268;SDS011;7218;51.480;7.006;2024-03-23T13:37:47;2.78;;;1.30;;
14268;SDS011;7218;51.480;7.006;2024-03-23T13:40:15;4.07;;;1.90;;
14268;SDS011;7218;51.480;7.006;2024-03-23T13:42:41;4.40;;;1.50;;
14268;SDS011;7218;51.480;7.006;2024-03-23T13:45:08;3.83;;;1.63;;
14268;SDS011;7218;51.480;7.006;2024-03-23T13:47:36;5.82;;;3.25;;
14268;SDS011;7218;51.480;7.006;2024-03-23T13:50:04;3.80;;;1.70;;
14268;SDS011;7218;51.480;7.006;2024-03-23T13:52:30;4.38;;;1.77;;
14268;SDS011;7218;51.480;7.006;2024-03-23T13:54:56;6.28;;;1.90;;
14268;SDS011;7218;51.480;7.006;2024-03-23T13:57:23;4.97;;;1.95;;
14268;SDS011;7218;51.480;7.006;2024-03-23T13:59:51;5.28;;;2.60;;
14268;SDS011;7218;51.480;7.006;2024-03-23T14:02:16;5.70;;;2.70;;
14268;SDS011;7218;51.480;7.006;2024-03-23T14:04:42;2.88;;;1.20;;
14268;SDS011;7218;51.480;7.006;2024-03-23T14:07:08;3.85;;;1.20;;
14268;SDS011;7218;51.480;7.006;2024-03-23T14:09:35;5.13;;;1.77;;
14268;SDS011;7218;51.480;7.006;2024-03-23T14:12:00;8.60;;;4.30;;
14268;SDS011;7218;51.480;7.006;2024-03-23T14:14:28;8.73;;;4.93;;
14268;SDS011;7218;51.480;7.006;2024-03-23T14:16:54;14.80;;;8.95;;
14268;SDS011;7218;51.480;7.006;2024-03-23T14:19:20;6.30;;;3.28;;
14268;SDS011;7218;51.480;7.006;2024-03-23T14:21:46;4.57;;;2.17;;
14268;SDS011;7218;51.480;7.006;2024-03-23T14:24:12;2.40;;;1.55;;
14268;SDS011;7218;51.480;7.006;2024-03-23T14:26:38;3.53;;;1.33;;
14268;SDS011;7218;51.480;7.006;2024-03-23T14:29:06;5.07;;;1.60;;
14268;SDS011;7218;51.480;7.006;2024-03-23T14:31:33;2.35;;;1.25;;
14268;SDS011;7218;51.480;7.006;2024-03-23T14:34:00;3.83;;;1.90;;
14268;SDS011;7218;51.480;7.006;2024-03-23T14:36:26;4.63;;;2.05;;
14268;SDS011;7218;51.480;7.006;2024-03-23T14:38:52;2.72;;;1.27;;
14268;SDS011;7218;51.480;7.006;2024-03-23T14:41:18;3.63;;;1.38;;
14268;SDS011;7218;51.480;7.006;2024-03-23T14:43:45;2.42;;;1.10;;
14268;SDS011;7218;51.480;7.006;2024-03-23T14:46:13;3.42;;;1.17;;
14268;SDS011;7218;51.480;7.006;2024-03-23T14:48:42;3.13;;;1.10;;
14268;SDS011;7218;51.480;7.006;2024-03-23T14:51:09;1.85;;;1.00;;
14268;SDS011;7218;51.480;7.006;2024-03-23T14:53:36;2.47;;;1.30;;
14268;SDS011;7218;51.480;7.006;2024-03-23T14:56:05;3.10;;;1.17;;
14268;SDS011;7218;51.480;7.006;2024-03-23T14:58:35;2.55;;;1.30;;
14268;SDS011;7218;51.480;7.006;2024-03-23T15:01:01;3.42;;;1.00;;
14268;SDS011;7218;51.480;7.006;2024-03-23T15:03:27;3.08;;;1.20;;
14268;SDS011;7218;51.480;7.006;2024-03-23T15:05:55;3.38;;;1.40;;
14268;SDS011;7218;51.480;7.006;2024-03-23T15:08:22;7.05;;;2.50;;
14268;SDS011;7218;51.480;7.006;2024-03-23T15:10:48;7.32;;;4.30;;
14268;SDS011;7218;51.480;7.006;2024-03-23T15:13:15;4.93;;;1.98;;
14268;SDS011;7218;51.480;7.006;2024-03-23T15:15:40;4.78;;;1.20;;
14268;SDS011;7218;51.480;7.006;2024-03-23T15:18:09;4.32;;;1.08;;
14268;SDS011;7218;51.480;7.006;2024-03-23T15:20:35;4.68;;;1.23;;
14268;SDS011;7218;51.480;7.006;2024-03-23T15:23:03;4.55;;;1.40;;
14268;SDS011;7218;51.480;7.006;2024-03-23T15:25:28;11.02;;;6.85;;
14268;SDS011;7218;51.480;7.006;2024-03-23T15:27:55;8.43;;;4.05;;
14268;SDS011;7218;51.480;7.006;2024-03-23T15:30:22;11.98;;;6.95;;
14268;SDS011;7218;51.480;7.006;2024-03-23T15:32:49;7.65;;;3.53;;
14268;SDS011;7218;51.480;7.006;2024-03-23T15:35:14;9.07;;;4.60;;
14268;SDS011;7218;51.480;7.006;2024-03-23T15:37:41;6.18;;;2.40;;
14268;SDS011;7218;51.480;7.006;2024-03-23T15:40:09;5.10;;;2.33;;
14268;SDS011;7218;51.480;7.006;2024-03-23T15:42:36;5.45;;;1.60;;
14268;SDS011;7218;51.480;7.006;2024-03-23T15:45:02;2.45;;;1.38;;
14268;SDS011;7218;51.480;7.006;2024-03-23T15:47:32;3.45;;;1.20;;